Map

Track Data

SID SEASON NUMBER BASIN SUBBASIN NAME ISO_TIME NATURE LAT LON WMO_WIND WMO_PRES WMO_AGENCY TRACK_TYPE DIST2LAND LANDFALL IFLAG USA_AGENCY USA_ATCF_ID USA_LAT USA_LON USA_RECORD USA_STATUS USA_WIND USA_PRES USA_SSHS USA_R34_NE USA_R34_SE USA_R34_SW USA_R34_NW USA_R50_NE USA_R50_SE USA_R50_SW USA_R50_NW USA_R64_NE USA_R64_SE USA_R64_SW USA_R64_NW USA_POCI USA_ROCI USA_RMW USA_EYE TOKYO_LAT TOKYO_LON TOKYO_GRADE TOKYO_WIND TOKYO_PRES TOKYO_R50_DIR TOKYO_R50_LONG TOKYO_R50_SHORT TOKYO_R30_DIR TOKYO_R30_LONG TOKYO_R30_SHORT TOKYO_LAND CMA_LAT CMA_LON CMA_CAT CMA_WIND CMA_PRES HKO_LAT HKO_LON HKO_CAT HKO_WIND HKO_PRES NEWDELHI_LAT NEWDELHI_LON NEWDELHI_GRADE NEWDELHI_WIND NEWDELHI_PRES NEWDELHI_CI NEWDELHI_DP NEWDELHI_POCI REUNION_LAT REUNION_LON REUNION_TYPE REUNION_WIND REUNION_PRES REUNION_TNUM REUNION_CI REUNION_RMW REUNION_R34_NE REUNION_R34_SE REUNION_R34_SW REUNION_R34_NW REUNION_R50_NE REUNION_R50_SE REUNION_R50_SW REUNION_R50_NW REUNION_R64_NE REUNION_R64_SE REUNION_R64_SW REUNION_R64_NW BOM_LAT BOM_LON BOM_TYPE BOM_WIND BOM_PRES BOM_TNUM BOM_CI BOM_RMW BOM_R34_NE BOM_R34_SE BOM_R34_SW BOM_R34_NW BOM_R50_NE BOM_R50_SE BOM_R50_SW BOM_R50_NW BOM_R64_NE BOM_R64_SE BOM_R64_SW BOM_R64_NW BOM_ROCI BOM_POCI BOM_EYE BOM_POS_METHOD BOM_PRES_METHOD NADI_LAT NADI_LON NADI_CAT NADI_WIND NADI_PRES WELLINGTON_LAT WELLINGTON_LON WELLINGTON_WIND WELLINGTON_PRES DS824_LAT DS824_LON DS824_STAGE DS824_WIND DS824_PRES TD9636_LAT TD9636_LON TD9636_STAGE TD9636_WIND TD9636_PRES TD9635_LAT TD9635_LON TD9635_WIND TD9635_PRES TD9635_ROCI NEUMANN_LAT NEUMANN_LON NEUMANN_CLASS NEUMANN_WIND NEUMANN_PRES MLC_LAT MLC_LON MLC_CLASS MLC_WIND MLC_PRES USA_GUST BOM_GUST BOM_GUST_PER REUNION_GUST REUNION_GUST_PER USA_SEAHGT USA_SEARAD_NE USA_SEARAD_SE USA_SEARAD_SW USA_SEARAD_NW STORM_SPEED STORM_DIR
1957296N23302 1957 76 NA NA NOT_NAMED 1957-10-23 00:00:00 TS 23.3000 -58.0000 30 hurdat_atl main 960 943 O_____________ hurdat_atl AL081957 23.3000 -58.0000 TD 30 -1 16 311
1957296N23302 1957 76 NA NA NOT_NAMED 1957-10-23 03:00:00 TS 23.8181 -58.6491 main 943 926 P_____________ AL081957 23.8181 -58.6491 TD 32 -1 16 310
1957296N23302 1957 76 NA NA NOT_NAMED 1957-10-23 06:00:00 TS 24.3000 -59.3000 35 hurdat_atl main 927 915 O_____________ hurdat_atl AL081957 24.3000 -59.3000 TS 35 0 15 307
1957296N23302 1957 76 NA NA NOT_NAMED 1957-10-23 09:00:00 TS 24.7097 -59.9501 main 911 897 P_____________ AL081957 24.7097 -59.9501 TS 37 0 14 301
1957296N23302 1957 76 NA NA NOT_NAMED 1957-10-23 12:00:00 TS 25.0000 -60.6000 40 hurdat_atl main 900 881 O_____________ hurdat_atl AL081957 25.0000 -60.6000 TS 40 0 13 292
1957296N23302 1957 76 NA NA NOT_NAMED 1957-10-23 15:00:00 TS 25.1747 -61.2501 main 880 850 P_____________ AL081957 25.1747 -61.2501 TS 40 0 12 280
1957296N23302 1957 76 NA NA NOT_NAMED 1957-10-23 18:00:00 TS 25.2000 -61.9000 40 hurdat_atl main 850 814 O_____________ hurdat_atl AL081957 25.2000 -61.9000 TS 40 0 12 265
1957296N23302 1957 76 NA NA NOT_NAMED 1957-10-23 21:00:00 TS 25.0650 -62.5733 main 810 767 P_____________ AL081957 25.0650 -62.5733 TS 42 0 12 256
1957296N23302 1957 76 NA NA NOT_NAMED 1957-10-24 00:00:00 TS 24.9000 -63.2000 45 998 hurdat_atl main 767 742 O_____________ hurdat_atl AL081957 24.9000 -63.2000 TS 45 998 0 11 258
1957296N23302 1957 76 NA NA NOT_NAMED 1957-10-24 03:00:00 TS 24.8397 -63.7375 main 742 734 P_____________ AL081957 24.8397 -63.7375 TS 45 0 9 270
1957296N23302 1957 76 NA NA NOT_NAMED 1957-10-24 06:00:00 TS 24.9000 -64.2000 45 hurdat_atl main 741 739 O_____________ hurdat_atl AL081957 24.9000 -64.2000 TS 45 0 8 287
1957296N23302 1957 76 NA NA NOT_NAMED 1957-10-24 09:00:00 TS 25.0899 -64.6299 main 756 754 P_____________ AL081957 25.0899 -64.6299 TS 45 0 9 305
1957296N23302 1957 76 NA NA NOT_NAMED 1957-10-24 12:00:00 TS 25.4000 -65.0000 45 hurdat_atl main 785 785 O_____________ hurdat_atl AL081957 25.4000 -65.0000 TS 45 0 9 316
1957296N23302 1957 76 NA NA NOT_NAMED 1957-10-24 15:00:00 TS 25.7625 -65.3449 main 827 827 P_____________ AL081957 25.7625 -65.3449 TS 47 0 10 326
1957296N23302 1957 76 NA NA NOT_NAMED 1957-10-24 18:00:00 TS 26.2000 -65.6000 50 hurdat_atl main 859 859 O_____________ hurdat_atl AL081957 26.2000 -65.6000 TS 50 0 10 337
1957296N23302 1957 76 NA NA NOT_NAMED 1957-10-24 21:00:00 TS 26.6849 -65.7748 main 901 901 P_____________ AL081957 26.6849 -65.7748 TS 50 0 10 350
1957296N23302 1957 76 NA NA NOT_NAMED 1957-10-25 00:00:00 TS 27.2000 -65.8000 50 hurdat_atl main 951 951 O_____________ hurdat_atl AL081957 27.2000 -65.8000 TS 50 0 10 6
1957296N23302 1957 76 NA NA NOT_NAMED 1957-10-25 03:00:00 TS 27.7000 -65.6602 main 1005 1005 P_____________ AL081957 27.7000 -65.6602 TS 50 0 11 20
1957296N23302 1957 76 NA NA NOT_NAMED 1957-10-25 06:00:00 TS 28.2000 -65.4000 50 991 hurdat_atl main 1068 1068 O_____________ hurdat_atl AL081957 28.2000 -65.4000 TS 50 991 0 11 25
1957296N23302 1957 76 NA NA NOT_NAMED 1957-10-25 09:00:00 TS 28.6773 -65.1442 main 1131 1131 P_____________ AL081957 28.6773 -65.1442 TS 50 992 0 11 28
1957296N23302 1957 76 NA NA NOT_NAMED 1957-10-25 12:00:00 TS 29.2000 -64.8000 50 hurdat_atl main 1194 1194 I_____________ hurdat_atl AL081957 29.2000 -64.8000 TS 50 993 0 13 33
1957296N23302 1957 76 NA NA NOT_NAMED 1957-10-25 15:00:00 TS 29.7901 -64.3295 main 1239 1232 P_____________ AL081957 29.7901 -64.3295 TS 50 994 0 16 34
1957296N23302 1957 76 NA NA NOT_NAMED 1957-10-25 18:00:00 TS 30.5000 -63.8000 50 995 hurdat_atl main 1236 1227 O_____________ hurdat_atl AL081957 30.5000 -63.8000 TS 50 995 0 18 30
1957296N23302 1957 76 NA NA NOT_NAMED 1957-10-25 21:00:00 TS 31.3171 -63.3205 main 1233 1225 P_____________ AL081957 31.3171 -63.3205 TS 47 0 20 25
1957296N23302 1957 76 NA NA NOT_NAMED 1957-10-26 00:00:00 TS 32.3000 -62.8000 45 hurdat_atl main 1224 1135 O_____________ hurdat_atl AL081957 32.3000 -62.8000 TS 45 0 24 23
1957296N23302 1957 76 NA NA NOT_NAMED 1957-10-26 03:00:00 TS 33.5215 -62.2248 main 1140 1040 P_____________ AL081957 33.5215 -62.2248 TS 45 0 26 24
1957296N23302 1957 76 NA NA NOT_NAMED 1957-10-26 06:00:00 TS 34.7000 -61.5000 45 hurdat_atl main 1032 973 O_____________ hurdat_atl AL081957 34.7000 -61.5000 TS 45 0 25 33
1957296N23302 1957 76 NA NA NOT_NAMED 1957-10-26 09:00:00 TS 35.5692 -60.5891 main 966 945 P_____________ AL081957 35.5692 -60.5891 TS 45 0 22 47
1957296N23302 1957 76 NA NA NOT_NAMED 1957-10-26 12:00:00 TS 36.2000 -59.5000 45 hurdat_atl main 950 944 O_____________ hurdat_atl AL081957 36.2000 -59.5000 TS 45 0 21 59
1957296N23302 1957 76 NA NA NOT_NAMED 1957-10-26 15:00:00 TS 36.6735 -58.3227 main 960 960 P_____________ AL081957 36.6735 -58.3227 TS 45 0 22 68
1957296N23302 1957 76 NA NA NOT_NAMED 1957-10-26 18:00:00 TS 37.0000 -57.0000 45 hurdat_atl main 974 969 O_____________ hurdat_atl AL081957 37.0000 -57.0000 TS 45 0 23 75
1957296N23302 1957 76 NA NA NOT_NAMED 1957-10-26 21:00:00 TS 37.2779 -55.5731 main 990 990 P_____________ AL081957 37.2779 -55.5731 TS 42 0 24 78
1957296N23302 1957 76 NA NA NOT_NAMED 1957-10-27 00:00:00 TS 37.5000 -54.0000 40 hurdat_atl main 1012 990 O_____________ hurdat_atl AL081957 37.5000 -54.0000 TS 40 0 27 81
1957296N23302 1957 76 NA NA NOT_NAMED 1957-10-27 03:00:00 TS 37.7081 -52.2492 main 993 984 P_____________ AL081957 37.7081 -52.2492 TS 37 0 28 82
1957296N23302 1957 76 NA NA NOT_NAMED 1957-10-27 06:00:00 TS 37.9000 -50.5000 35 hurdat_atl main 992 989 O_____________ hurdat_atl AL081957 37.9000 -50.5000 TS 35 0 26 82
1957296N23302 1957 76 NA NA NOT_NAMED 1957-10-27 09:00:00 TS 38.0894 -48.9537 main 1005 1005 P_____________ AL081957 38.0894 -48.9537 TS 32 -1 24 80
1957296N23302 1957 76 NA NA NOT_NAMED 1957-10-27 12:00:00 TS 38.3000 -47.5000 30 hurdat_atl main 1033 1033 O_____________ hurdat_atl AL081957 38.3000 -47.5000 TD 30 -1 23 79
1957296N23302 1957 76 NA NA NOT_NAMED 1957-10-27 15:00:00 TS 38.5441 -46.0550 main 1070 1064 P_____________ AL081957 38.5441 -46.0550 TD 27 -1 23 78
1957296N23302 1957 76 NA NA NOT_NAMED 1957-10-27 18:00:00 TS 38.8000 -44.6000 25 hurdat_atl main 1113 O_____________ hurdat_atl AL081957 38.8000 -44.6000 TD 25 -1 23 77

About IBTrACS Database

This database is a web-friendly format of International Best Track Archive for Climate Stewardship (IBTrACS), a global best track data archive curated by NOAA dating back to 1842.

Updated: 2021-12-03